»·PEaware :: N518FT KBLI-KMRY

N518FT :: KBLI-KMRY

FLIGHT INFORMATION

Flight Status: Arrived
Operator: Privately registered:
United States
More flights under this callsign
Pilot: Anonymous 38440 (38440)
Aircraft: CIRRUS VISIONJET
(SF50)
More flights by this aircraft type
Origin: KBLI Bellingham Intl
United States
Destination: KMRY Monterey Peninsula
United States
More flights between these airports :: More routes between these airports
Route: KIENO6 CVV ELMAA Q1 PYE V27 SHOEY
File this flight plan on PilotEdge
Remarks:
Altitude:
(Current/Filed)
28,000ft
Speed:
(Current/Filed)
300kts
Departed: 07-Dec-22 10:19 AM
Arrived: 07-Dec-22 01:06 PM
Distance/Time
Traveled:
733nm/2:46
Distance/Time
To Go:
Arrived

Flight Plot

Page will automatically refresh every two minutes.

Flight plan parsing failed; only flown route is shown


Map Options




Map Legend


Flown Route
Filed Route
Departure Airport
Arrival Airport
Navaid (VOR, NDB)
Fix

Horizontal Profiles

Position Reports

Time Latitude Longitude Heading Altitude Ground
Speed
07-Dec-22 09:51 48.795845 -122.534500 88 168ft 0kts
07-Dec-22 09:52 48.795845 -122.534500 88 168ft 0kts
07-Dec-22 09:53 48.795845 -122.534500 88 168ft 0kts
07-Dec-22 09:53 48.795845 -122.534500 88 168ft 0kts
07-Dec-22 09:55 48.795845 -122.534500 88 168ft 0kts
07-Dec-22 09:55 48.795845 -122.534500 88 168ft 0kts
07-Dec-22 09:56 48.795845 -122.534500 88 168ft 0kts
07-Dec-22 09:57 48.795845 -122.534500 88 168ft 0kts
07-Dec-22 09:58 48.795845 -122.534500 88 168ft 0kts
07-Dec-22 10:00 48.795845 -122.534500 88 168ft 0kts
07-Dec-22 10:00 48.795845 -122.534500 88 168ft 0kts
07-Dec-22 10:01 48.795845 -122.534500 88 168ft 0kts
07-Dec-22 10:02 48.795845 -122.534500 88 168ft 0kts
07-Dec-22 10:03 48.795845 -122.534500 88 168ft 0kts
07-Dec-22 10:04 48.795845 -122.534500 88 168ft 0kts
07-Dec-22 10:05 48.795845 -122.534500 88 168ft 0kts
07-Dec-22 10:06 48.795845 -122.534500 88 168ft 0kts
07-Dec-22 10:07 48.795845 -122.534500 88 168ft 0kts
07-Dec-22 10:08 48.795845 -122.534500 88 168ft 0kts
07-Dec-22 10:09 48.795845 -122.534500 88 168ft 0kts
07-Dec-22 10:10 48.795845 -122.534500 88 168ft 0kts
07-Dec-22 10:11 48.794229 -122.534963 195 168ft 14kts
07-Dec-22 10:12 48.790500 -122.535214 179 170ft 14kts
07-Dec-22 10:13 48.786199 -122.535822 179 172ft 20kts
07-Dec-22 10:14 48.783636 -122.536079 251 173ft 1kts
07-Dec-22 10:15 48.783635 -122.536084 251 173ft 0kts
07-Dec-22 10:16 48.783591 -122.536745 270 172ft 5kts
07-Dec-22 10:17 48.784065 -122.537514 359 172ft 15kts
07-Dec-22 10:18 48.811531 -122.537982 349 1211ft 130kts
07-Dec-22 10:19 48.799308 -122.555730 155 3188ft 151kts
07-Dec-22 10:20 48.755746 -122.553013 190 5324ft 164kts
07-Dec-22 10:21 48.709772 -122.566087 192 7292ft 171kts
07-Dec-22 10:22 48.662545 -122.578711 194 9084ft 174kts
07-Dec-22 10:23 48.615133 -122.595621 197 10696ft 176kts
07-Dec-22 10:24 48.566814 -122.612576 197 12195ft 180kts
07-Dec-22 10:25 48.517568 -122.629782 197 13744ft 185kts
07-Dec-22 10:26 48.467134 -122.647362 197 15184ft 188kts
07-Dec-22 10:27 48.415506 -122.665313 197 16592ft 192kts
07-Dec-22 10:28 48.362761 -122.683617 197 17974ft 196kts
07-Dec-22 10:29 48.306440 -122.703057 197 19131ft 209kts
07-Dec-22 10:30 48.250058 -122.723395 200 20530ft 207kts
07-Dec-22 10:31 48.197021 -122.755119 205 21892ft 205kts
07-Dec-22 10:32 48.144771 -122.788204 206 23288ft 203kts
07-Dec-22 10:33 48.092798 -122.821229 206 24443ft 202kts
07-Dec-22 10:34 48.041372 -122.853853 207 25520ft 200kts
07-Dec-22 10:35 47.990245 -122.886249 207 26541ft 199kts
07-Dec-22 10:36 47.939375 -122.918397 207 27517ft 198kts
07-Dec-22 10:37 47.887395 -122.951146 206 28075ft 215kts
07-Dec-22 10:38 47.828711 -122.988040 206 28173ft 243kts
07-Dec-22 10:39 47.763986 -123.028597 206 28181ft 261kts
07-Dec-22 10:40 47.695556 -123.071390 206 28199ft 273kts
07-Dec-22 10:41 47.624003 -123.116026 205 28189ft 283kts
07-Dec-22 10:42 47.550557 -123.161724 205 28188ft 288kts
07-Dec-22 10:43 47.477170 -123.207250 205 28192ft 284kts
07-Dec-22 10:44 47.403808 -123.252550 205 28185ft 285kts
07-Dec-22 10:45 47.330041 -123.297984 205 28188ft 286kts
07-Dec-22 10:46 47.256578 -123.343113 205 28182ft 287kts
07-Dec-22 10:47 47.182759 -123.388330 205 28179ft 287kts
07-Dec-22 10:48 47.103834 -123.409116 180 28180ft 294kts
07-Dec-22 10:49 47.021865 -123.405259 181 28184ft 295kts
07-Dec-22 10:50 46.939987 -123.402550 182 28188ft 295kts
07-Dec-22 10:51 46.857895 -123.400033 182 28185ft 295kts
07-Dec-22 10:52 46.775670 -123.397455 181 28188ft 295kts
07-Dec-22 10:53 46.693470 -123.394845 181 28186ft 295kts
07-Dec-22 10:54 46.611303 -123.392289 181 28191ft 296kts
07-Dec-22 10:55 46.528842 -123.389737 181 28188ft 296kts
07-Dec-22 10:56 46.446047 -123.387176 181 28187ft 297kts
07-Dec-22 10:57 46.363294 -123.384618 181 28193ft 298kts
07-Dec-22 10:58 46.280358 -123.382077 181 28198ft 298kts
07-Dec-22 10:59 46.197609 -123.379514 181 28204ft 298kts
07-Dec-22 11:00 46.113983 -123.376927 181 28214ft 302kts
07-Dec-22 11:01 46.030074 -123.374337 181 28213ft 299kts
07-Dec-22 11:02 45.946962 -123.371814 181 28205ft 300kts
07-Dec-22 11:03 45.863472 -123.369301 181 28201ft 300kts
07-Dec-22 11:04 45.779734 -123.366754 181 28209ft 301kts
07-Dec-22 11:05 45.696434 -123.364247 181 28211ft 300kts
07-Dec-22 11:06 45.612493 -123.361724 181 28216ft 300kts
07-Dec-22 11:07 45.528857 -123.359164 181 28218ft 301kts
07-Dec-22 11:08 45.445317 -123.356690 181 28225ft 301kts
07-Dec-22 11:09 45.361577 -123.354197 181 28231ft 301kts
07-Dec-22 11:10 45.277772 -123.351690 180 28238ft 301kts
07-Dec-22 11:11 45.193882 -123.349220 181 28239ft 301kts
07-Dec-22 11:12 45.109971 -123.346754 180 28238ft 301kts
07-Dec-22 11:13 45.026077 -123.344251 180 28238ft 301kts
07-Dec-22 11:14 44.942265 -123.341769 180 28239ft 302kts
07-Dec-22 11:15 44.858135 -123.339322 180 28241ft 302kts
07-Dec-22 11:16 44.774458 -123.336873 180 28240ft 301kts
07-Dec-22 11:17 44.690452 -123.334404 180 28248ft 301kts
07-Dec-22 11:18 44.606481 -123.331967 181 28258ft 302kts
07-Dec-22 11:19 44.522315 -123.330013 181 28255ft 301kts
07-Dec-22 11:20 44.438198 -123.326503 180 28255ft 302kts
07-Dec-22 11:21 44.354284 -123.323044 180 28255ft 302kts
07-Dec-22 11:22 44.270243 -123.319674 180 28244ft 301kts
07-Dec-22 11:23 44.186002 -123.316313 180 28247ft 302kts
07-Dec-22 11:24 44.102072 -123.312957 180 28245ft 302kts
07-Dec-22 11:25 44.017794 -123.309597 180 28246ft 302kts
07-Dec-22 11:26 43.933631 -123.306257 180 28242ft 302kts
07-Dec-22 11:27 43.849564 -123.302970 180 28241ft 302kts
07-Dec-22 11:28 43.765735 -123.299668 180 28239ft 302kts
07-Dec-22 11:29 43.681362 -123.296332 180 28238ft 302kts
07-Dec-22 11:30 43.597442 -123.293090 180 28236ft 302kts
07-Dec-22 11:31 43.513190 -123.289777 180 28238ft 302kts
07-Dec-22 11:32 43.429148 -123.286519 180 28245ft 302kts
07-Dec-22 11:33 43.344978 -123.283220 180 28254ft 302kts
07-Dec-22 11:34 43.260890 -123.279955 180 28256ft 303kts
07-Dec-22 11:35 43.176493 -123.276699 180 28259ft 303kts
07-Dec-22 11:36 43.092166 -123.273462 180 28247ft 302kts
07-Dec-22 11:37 43.008086 -123.270245 180 28216ft 303kts
07-Dec-22 11:38 42.923643 -123.267030 180 28215ft 303kts
07-Dec-22 11:39 42.839346 -123.263772 180 28199ft 302kts
07-Dec-22 11:40 42.755404 -123.260593 180 28202ft 302kts
07-Dec-22 11:41 42.671002 -123.257410 180 28205ft 303kts
07-Dec-22 11:42 42.586542 -123.254184 179 28205ft 304kts
07-Dec-22 11:43 42.501966 -123.250952 179 28220ft 304kts
07-Dec-22 11:44 42.417524 -123.247837 179 28224ft 304kts
07-Dec-22 11:45 42.332748 -123.244741 179 28241ft 305kts
07-Dec-22 11:46 42.248153 -123.241600 179 28246ft 305kts
07-Dec-22 11:47 42.163318 -123.238459 180 28245ft 304kts
07-Dec-22 11:48 42.078642 -123.235344 180 28256ft 303kts
07-Dec-22 11:49 41.994084 -123.232308 180 28271ft 304kts
07-Dec-22 11:50 41.909053 -123.229208 180 28280ft 306kts
07-Dec-22 11:51 41.824088 -123.226126 179 28281ft 306kts
07-Dec-22 11:52 41.738996 -123.223034 180 28290ft 307kts
07-Dec-22 11:53 41.653856 -123.219940 179 28289ft 306kts
07-Dec-22 11:54 41.568537 -123.216942 179 28288ft 307kts
07-Dec-22 11:55 41.483263 -123.213961 179 28278ft 308kts
07-Dec-22 11:56 41.397724 -123.211011 179 28271ft 307kts
07-Dec-22 11:57 41.312089 -123.208453 180 28272ft 307kts
07-Dec-22 11:58 41.226546 -123.206116 179 28268ft 308kts
07-Dec-22 11:59 41.140617 -123.203908 179 28263ft 309kts
07-Dec-22 12:00 41.054635 -123.201699 179 28278ft 309kts
07-Dec-22 12:01 40.968516 -123.199548 180 28262ft 309kts
07-Dec-22 12:02 40.882199 -123.197397 180 28256ft 310kts
07-Dec-22 12:03 40.795880 -123.195250 179 28252ft 310kts
07-Dec-22 12:04 40.709642 -123.193107 179 28246ft 310kts
07-Dec-22 12:05 40.623433 -123.190954 179 28246ft 309kts
07-Dec-22 12:06 40.537096 -123.188819 179 28252ft 310kts
07-Dec-22 12:07 40.450622 -123.186667 179 28248ft 312kts
07-Dec-22 12:08 40.363908 -123.184515 180 28246ft 313kts
07-Dec-22 12:09 40.276712 -123.182365 180 28244ft 312kts
07-Dec-22 12:10 40.189616 -123.180221 180 28239ft 313kts
07-Dec-22 12:11 40.102414 -123.178064 180 28245ft 313kts
07-Dec-22 12:12 40.015328 -123.175921 180 28243ft 313kts
07-Dec-22 12:13 39.927991 -123.172929 180 28246ft 314kts
07-Dec-22 12:14 39.840698 -123.169145 179 28251ft 314kts
07-Dec-22 12:15 39.753306 -123.165077 179 28250ft 314kts
07-Dec-22 12:16 39.665995 -123.160996 179 28245ft 314kts
07-Dec-22 12:17 39.578825 -123.156965 179 28249ft 314kts
07-Dec-22 12:18 39.491299 -123.152956 179 28256ft 315kts
07-Dec-22 12:19 39.403743 -123.148948 179 28258ft 315kts
07-Dec-22 12:20 39.316128 -123.144964 179 28267ft 315kts
07-Dec-22 12:21 39.228671 -123.140979 179 28277ft 315kts
07-Dec-22 12:22 39.140976 -123.137005 179 28273ft 315kts
07-Dec-22 12:24 39.053410 -123.125270 167 28275ft 317kts
07-Dec-22 12:25 38.969150 -123.101955 169 26935ft 308kts
07-Dec-22 12:26 38.882747 -123.079019 170 24493ft 319kts
07-Dec-22 12:27 38.795949 -123.056014 170 24270ft 319kts
07-Dec-22 12:28 38.708864 -123.032954 170 24254ft 320kts
07-Dec-22 12:29 38.624547 -123.010637 170 23863ft 313kts
07-Dec-22 12:30 38.541842 -122.988818 170 21503ft 321kts
07-Dec-22 12:31 38.454521 -122.965822 171 21273ft 320kts
07-Dec-22 12:32 38.367109 -122.942869 171 21269ft 320kts
07-Dec-22 12:33 38.279804 -122.920022 171 21277ft 321kts
07-Dec-22 12:34 38.192763 -122.897288 171 21282ft 320kts
07-Dec-22 12:35 38.104930 -122.874175 170 21274ft 320kts
07-Dec-22 12:36 38.019890 -122.841357 164 21278ft 321kts
07-Dec-22 12:37 37.935259 -122.805158 163 21274ft 322kts
07-Dec-22 12:38 37.850554 -122.768328 163 21276ft 322kts
07-Dec-22 12:39 37.765592 -122.731568 163 21277ft 322kts
07-Dec-22 12:40 37.681329 -122.695260 163 19137ft 318kts
07-Dec-22 12:41 37.598124 -122.659480 162 15560ft 318kts
07-Dec-22 12:42 37.515319 -122.623926 162 15031ft 312kts
07-Dec-22 12:43 37.433872 -122.589072 162 15012ft 307kts
07-Dec-22 12:44 37.353153 -122.554595 162 15006ft 305kts
07-Dec-22 12:44 37.286263 -122.526072 162 15003ft 304kts
07-Dec-22 12:46 37.192604 -122.486261 162 14583ft 311kts
07-Dec-22 12:47 37.111620 -122.449513 155 11143ft 296kts
07-Dec-22 12:48 37.046497 -122.403147 143 7510ft 262kts
07-Dec-22 12:48 37.008316 -122.349230 122 7048ft 250kts
07-Dec-22 12:49 36.971990 -122.274584 121 6999ft 251kts
07-Dec-22 12:51 36.931453 -122.190637 121 5736ft 232kts
07-Dec-22 12:51 36.903843 -122.134513 121 5063ft 222kts
07-Dec-22 12:52 36.871265 -122.068940 121 5015ft 222kts
07-Dec-22 12:53 36.838615 -122.003235 121 5007ft 223kts
07-Dec-22 12:55 36.800552 -121.926585 121 5003ft 222kts
07-Dec-22 12:55 36.773345 -121.871800 121 5002ft 223kts
07-Dec-22 12:56 36.740701 -121.806101 121 4999ft 223kts
07-Dec-22 12:57 36.697848 -121.754882 157 4975ft 213kts
07-Dec-22 12:58 36.652333 -121.730874 156 4703ft 147kts
07-Dec-22 12:59 36.615774 -121.710766 156 2741ft 150kts
07-Dec-22 13:00 36.576638 -121.702918 193 2124ft 142kts
07-Dec-22 13:01 36.573839 -121.745354 275 1565ft 115kts
07-Dec-22 13:02 36.576893 -121.783599 275 1446ft 100kts
07-Dec-22 13:03 36.577405 -121.815848 288 974ft 93kts
07-Dec-22 13:04 36.586225 -121.841898 294 221ft 56kts
07-Dec-22 13:05 36.587083 -121.847067 294 204ft 17kts
07-Dec-22 13:06 36.588800 -121.852121 292 179ft 15kts
07-Dec-22 13:07 36.589267 -121.856678 255 162ft 10kts
07-Dec-22 13:08 36.589297 -121.857801 261 161ft 0kts

Navigation Log

Ident Type
Flight plan parsing failed, navigation log unavailable